sensor_id;sensor_type;location;lat;lon;timestamp;pressure;altitude;pressure_sealevel;temperature;humidity
18988;BME280;5494;51.796;10.952;2023-12-20T00:01:23;98469.22;;;5.58;100.00
18988;BME280;5494;51.796;10.952;2023-12-20T00:03:51;98464.06;;;5.58;100.00
18988;BME280;5494;51.796;10.952;2023-12-20T00:06:20;98461.88;;;5.69;100.00
18988;BME280;5494;51.796;10.952;2023-12-20T00:08:48;98468.13;;;5.63;100.00
18988;BME280;5494;51.796;10.952;2023-12-20T00:11:16;98468.97;;;5.64;100.00
18988;BME280;5494;51.796;10.952;2023-12-20T00:13:46;98465.44;;;5.66;100.00
18988;BME280;5494;51.796;10.952;2023-12-20T00:16:17;98465.97;;;5.74;100.00
18988;BME280;5494;51.796;10.952;2023-12-20T00:18:46;98462.13;;;5.63;100.00
18988;BME280;5494;51.796;10.952;2023-12-20T00:21:14;98465.50;;;5.65;100.00
18988;BME280;5494;51.796;10.952;2023-12-20T00:23:42;98460.22;;;5.68;100.00
18988;BME280;5494;51.796;10.952;2023-12-20T00:26:10;98451.47;;;5.72;100.00
18988;BME280;5494;51.796;10.952;2023-12-20T00:28:38;98454.09;;;5.70;100.00
18988;BME280;5494;51.796;10.952;2023-12-20T00:31:08;98446.31;;;5.72;100.00
18988;BME280;5494;51.796;10.952;2023-12-20T00:33:36;98458.47;;;5.68;100.00
18988;BME280;5494;51.796;10.952;2023-12-20T00:36:05;98457.53;;;5.71;100.00
18988;BME280;5494;51.796;10.952;2023-12-20T00:38:33;98460.88;;;5.73;100.00
18988;BME280;5494;51.796;10.952;2023-12-20T00:41:01;98455.66;;;5.74;100.00
18988;BME280;5494;51.796;10.952;2023-12-20T00:43:30;98455.84;;;5.70;100.00
18988;BME280;5494;51.796;10.952;2023-12-20T00:45:58;98454.28;;;5.66;100.00
18988;BME280;5494;51.796;10.952;2023-12-20T00:48:28;98452.47;;;5.68;100.00
18988;BME280;5494;51.796;10.952;2023-12-20T00:50:57;98453.91;;;5.75;100.00
18988;BME280;5494;51.796;10.952;2023-12-20T00:53:25;98450.31;;;5.79;100.00
18988;BME280;5494;51.796;10.952;2023-12-20T00:55:53;98458.00;;;5.80;100.00
18988;BME280;5494;51.796;10.952;2023-12-20T00:58:21;98461.47;;;5.79;100.00
18988;BME280;5494;51.796;10.952;2023-12-20T01:00:49;98453.84;;;5.76;100.00
18988;BME280;5494;51.796;10.952;2023-12-20T01:03:18;98462.19;;;5.83;100.00
18988;BME280;5494;51.796;10.952;2023-12-20T01:05:47;98465.56;;;5.85;100.00
18988;BME280;5494;51.796;10.952;2023-12-20T01:08:15;98458.06;;;5.79;100.00
18988;BME280;5494;51.796;10.952;2023-12-20T01:10:43;98462.31;;;5.80;100.00
18988;BME280;5494;51.796;10.952;2023-12-20T01:13:11;98458.22;;;5.74;100.00
18988;BME280;5494;51.796;10.952;2023-12-20T01:15:39;98461.28;;;5.84;100.00
18988;BME280;5494;51.796;10.952;2023-12-20T01:18:07;98455.47;;;5.79;100.00
18988;BME280;5494;51.796;10.952;2023-12-20T01:20:35;98449.50;;;5.78;100.00
18988;BME280;5494;51.796;10.952;2023-12-20T01:23:05;98446.84;;;5.80;100.00
18988;BME280;5494;51.796;10.952;2023-12-20T01:25:33;98458.00;;;5.80;100.00
18988;BME280;5494;51.796;10.952;2023-12-20T01:28:01;98457.16;;;5.80;100.00
18988;BME280;5494;51.796;10.952;2023-12-20T01:30:30;98460.38;;;5.85;100.00
18988;BME280;5494;51.796;10.952;2023-12-20T01:33:00;98457.91;;;5.82;100.00
18988;BME280;5494;51.796;10.952;2023-12-20T01:35:29;98455.91;;;5.90;100.00
18988;BME280;5494;51.796;10.952;2023-12-20T01:37:57;98447.16;;;5.94;100.00
18988;BME280;5494;51.796;10.952;2023-12-20T01:40:26;98442.19;;;5.89;100.00
18988;BME280;5494;51.796;10.952;2023-12-20T01:43:00;98452.59;;;5.86;100.00
18988;BME280;5494;51.796;10.952;2023-12-20T01:45:29;98444.00;;;5.87;100.00
18988;BME280;5494;51.796;10.952;2023-12-20T01:47:58;98450.88;;;5.87;100.00
18988;BME280;5494;51.796;10.952;2023-12-20T01:50:28;98450.75;;;5.90;100.00
18988;BME280;5494;51.796;10.952;2023-12-20T01:52:58;98442.28;;;5.86;100.00
18988;BME280;5494;51.796;10.952;2023-12-20T01:55:35;98442.19;;;5.89;100.00
18988;BME280;5494;51.796;10.952;2023-12-20T01:58:04;98442.13;;;5.91;100.00
18988;BME280;5494;51.796;10.952;2023-12-20T02:00:33;98457.22;;;6.00;100.00
18988;BME280;5494;51.796;10.952;2023-12-20T02:03:02;98457.41;;;5.96;100.00
18988;BME280;5494;51.796;10.952;2023-12-20T02:05:34;98453.03;;;5.98;100.00
18988;BME280;5494;51.796;10.952;2023-12-20T02:08:03;98441.09;;;5.95;100.00
18988;BME280;5494;51.796;10.952;2023-12-20T02:10:34;98444.25;;;6.02;100.00
18988;BME280;5494;51.796;10.952;2023-12-20T02:13:03;98450.78;;;6.10;100.00
18988;BME280;5494;51.796;10.952;2023-12-20T02:15:32;98449.88;;;6.11;100.00
18988;BME280;5494;51.796;10.952;2023-12-20T02:18:00;98462.66;;;6.14;100.00
18988;BME280;5494;51.796;10.952;2023-12-20T02:20:28;98466.22;;;6.12;100.00
18988;BME280;5494;51.796;10.952;2023-12-20T02:22:57;98471.56;;;6.07;100.00
18988;BME280;5494;51.796;10.952;2023-12-20T02:25:25;98473.56;;;6.01;100.00
18988;BME280;5494;51.796;10.952;2023-12-20T02:27:53;98480.56;;;5.97;100.00
18988;BME280;5494;51.796;10.952;2023-12-20T02:30:23;98477.97;;;5.97;100.00
18988;BME280;5494;51.796;10.952;2023-12-20T02:32:52;98464.84;;;6.03;100.00
18988;BME280;5494;51.796;10.952;2023-12-20T02:35:21;98475.41;;;5.97;100.00
18988;BME280;5494;51.796;10.952;2023-12-20T02:37:49;98456.66;;;5.93;100.00
18988;BME280;5494;51.796;10.952;2023-12-20T02:40:18;98461.91;;;5.90;100.00
18988;BME280;5494;51.796;10.952;2023-12-20T02:42:46;98452.59;;;5.86;100.00
18988;BME280;5494;51.796;10.952;2023-12-20T02:45:14;98455.34;;;5.82;100.00
18988;BME280;5494;51.796;10.952;2023-12-20T02:47:42;98461.53;;;5.78;100.00
18988;BME280;5494;51.796;10.952;2023-12-20T02:50:11;98463.28;;;5.77;100.00
18988;BME280;5494;51.796;10.952;2023-12-20T02:52:39;98449.50;;;5.78;100.00
18988;BME280;5494;51.796;10.952;2023-12-20T02:55:07;98448.59;;;5.79;100.00
18988;BME280;5494;51.796;10.952;2023-12-20T02:57:36;98460.50;;;6.04;100.00
18988;BME280;5494;51.796;10.952;2023-12-20T03:00:10;98464.13;;;6.00;100.00
18988;BME280;5494;51.796;10.952;2023-12-20T03:02:38;98471.97;;;5.97;100.00
18988;BME280;5494;51.796;10.952;2023-12-20T03:05:07;98466.81;;;5.97;100.00
18988;BME280;5494;51.796;10.952;2023-12-20T03:07:37;98471.31;;;6.13;100.00
18988;BME280;5494;51.796;10.952;2023-12-20T03:10:06;98476.88;;;6.45;100.00
18988;BME280;5494;51.796;10.952;2023-12-20T03:12:47;98487.91;;;6.48;100.00
18988;BME280;5494;51.796;10.952;2023-12-20T03:15:15;98487.84;;;6.70;100.00
18988;BME280;5494;51.796;10.952;2023-12-20T03:17:43;98490.53;;;6.67;100.00
18988;BME280;5494;51.796;10.952;2023-12-20T03:20:12;98493.25;;;6.64;100.00
18988;BME280;5494;51.796;10.952;2023-12-20T03:22:40;98483.69;;;6.66;100.00
18988;BME280;5494;51.796;10.952;2023-12-20T03:25:08;98472.59;;;6.64;100.00
18988;BME280;5494;51.796;10.952;2023-12-20T03:27:37;98464.22;;;6.59;100.00
18988;BME280;5494;51.796;10.952;2023-12-20T03:30:08;98466.09;;;6.55;100.00
18988;BME280;5494;51.796;10.952;2023-12-20T03:32:38;98468.00;;;6.50;100.00
18988;BME280;5494;51.796;10.952;2023-12-20T03:35:06;98465.84;;;6.41;100.00
18988;BME280;5494;51.796;10.952;2023-12-20T03:37:34;98466.75;;;6.40;100.00
18988;BME280;5494;51.796;10.952;2023-12-20T03:40:03;98464.84;;;6.44;100.00
18988;BME280;5494;51.796;10.952;2023-12-20T03:42:31;98467.31;;;6.26;100.00
18988;BME280;5494;51.796;10.952;2023-12-20T03:44:59;98477.50;;;6.29;100.00
18988;BME280;5494;51.796;10.952;2023-12-20T03:47:29;98466.69;;;6.42;100.00
18988;BME280;5494;51.796;10.952;2023-12-20T03:49:57;98470.41;;;6.35;100.00
18988;BME280;5494;51.796;10.952;2023-12-20T03:52:25;98473.75;;;6.37;100.00
18988;BME280;5494;51.796;10.952;2023-12-20T03:54:53;98463.38;;;6.18;100.00
18988;BME280;5494;51.796;10.952;2023-12-20T03:57:21;98465.16;;;6.16;100.00
18988;BME280;5494;51.796;10.952;2023-12-20T03:59:49;98463.31;;;6.19;100.00
18988;BME280;5494;51.796;10.952;2023-12-20T04:02:17;98479.56;;;6.21;100.00
18988;BME280;5494;51.796;10.952;2023-12-20T04:04:47;98473.91;;;6.33;100.00
18988;BME280;5494;51.796;10.952;2023-12-20T04:07:15;98469.16;;;6.43;100.00
18988;BME280;5494;51.796;10.952;2023-12-20T04:09:43;98469.84;;;6.48;100.00
18988;BME280;5494;51.796;10.952;2023-12-20T04:12:11;98466.59;;;6.43;100.00
18988;BME280;5494;51.796;10.952;2023-12-20T04:14:39;98460.09;;;6.35;100.00
18988;BME280;5494;51.796;10.952;2023-12-20T04:17:07;98459.25;;;6.34;100.00
18988;BME280;5494;51.796;10.952;2023-12-20T04:19:35;98463.84;;;6.27;100.00
18988;BME280;5494;51.796;10.952;2023-12-20T04:22:04;98473.44;;;6.24;100.00
18988;BME280;5494;51.796;10.952;2023-12-20T04:24:33;98475.31;;;6.20;100.00
18988;BME280;5494;51.796;10.952;2023-12-20T04:27:01;98468.31;;;6.22;100.00
18988;BME280;5494;51.796;10.952;2023-12-20T04:29:29;98474.72;;;6.14;100.00
18988;BME280;5494;51.796;10.952;2023-12-20T04:31:57;98471.44;;;6.30;100.00
18988;BME280;5494;51.796;10.952;2023-12-20T04:34:25;98483.91;;;6.41;100.00
18988;BME280;5494;51.796;10.952;2023-12-20T04:36:53;98472.53;;;6.45;100.00
18988;BME280;5494;51.796;10.952;2023-12-20T04:39:23;98469.78;;;6.50;100.00
18988;BME280;5494;51.796;10.952;2023-12-20T04:41:51;98471.31;;;6.33;100.00
18988;BME280;5494;51.796;10.952;2023-12-20T04:44:20;98465.69;;;6.44;100.00
18988;BME280;5494;51.796;10.952;2023-12-20T04:46:48;98463.44;;;6.37;100.00
18988;BME280;5494;51.796;10.952;2023-12-20T04:49:16;98459.84;;;6.41;100.00
18988;BME280;5494;51.796;10.952;2023-12-20T04:51:44;98449.56;;;6.39;100.00
18988;BME280;5494;51.796;10.952;2023-12-20T04:54:12;98448.34;;;6.27;100.00
18988;BME280;5494;51.796;10.952;2023-12-20T04:56:41;98448.09;;;6.13;100.00
18988;BME280;5494;51.796;10.952;2023-12-20T04:59:09;98448.91;;;5.93;100.00
18988;BME280;5494;51.796;10.952;2023-12-20T05:01:37;98448.72;;;5.98;100.00
18988;BME280;5494;51.796;10.952;2023-12-20T05:04:05;98448.75;;;5.97;100.00
18988;BME280;5494;51.796;10.952;2023-12-20T05:06:33;98441.56;;;5.83;100.00
18988;BME280;5494;51.796;10.952;2023-12-20T05:09:02;98444.03;;;5.86;100.00
18988;BME280;5494;51.796;10.952;2023-12-20T05:11:30;98454.84;;;5.74;100.00
18988;BME280;5494;51.796;10.952;2023-12-20T05:13:59;98455.97;;;5.67;100.00
18988;BME280;5494;51.796;10.952;2023-12-20T05:16:27;98454.28;;;5.66;100.00
18988;BME280;5494;51.796;10.952;2023-12-20T05:18:55;98450.97;;;5.62;100.00
18988;BME280;5494;51.796;10.952;2023-12-20T05:21:23;98449.38;;;5.60;100.00
18988;BME280;5494;51.796;10.952;2023-12-20T05:23:52;98448.88;;;5.72;100.00
18988;BME280;5494;51.796;10.952;2023-12-20T05:26:20;98447.41;;;5.66;100.00
18988;BME280;5494;51.796;10.952;2023-12-20T05:28:48;98452.41;;;5.69;100.00
18988;BME280;5494;51.796;10.952;2023-12-20T05:31:17;98439.78;;;5.63;100.00
18988;BME280;5494;51.796;10.952;2023-12-20T05:33:45;98423.38;;;5.86;99.32
18988;BME280;5494;51.796;10.952;2023-12-20T05:36:14;98429.44;;;5.85;100.00
18988;BME280;5494;51.796;10.952;2023-12-20T05:38:42;98428.22;;;5.73;100.00
18988;BME280;5494;51.796;10.952;2023-12-20T05:41:10;98429.28;;;5.68;100.00
18988;BME280;5494;51.796;10.952;2023-12-20T05:43:38;98424.56;;;5.57;100.00
18988;BME280;5494;51.796;10.952;2023-12-20T05:46:06;98418.38;;;5.61;100.00
18988;BME280;5494;51.796;10.952;2023-12-20T05:48:35;98409.94;;;5.58;100.00
18988;BME280;5494;51.796;10.952;2023-12-20T05:51:04;98401.06;;;5.43;100.00
18988;BME280;5494;51.796;10.952;2023-12-20T05:53:32;98412.06;;;5.46;100.00
18988;BME280;5494;51.796;10.952;2023-12-20T05:56:00;98409.03;;;5.59;100.00
18988;BME280;5494;51.796;10.952;2023-12-20T05:58:28;98407.16;;;5.62;100.00
18988;BME280;5494;51.796;10.952;2023-12-20T06:00:56;98412.91;;;5.69;100.00
18988;BME280;5494;51.796;10.952;2023-12-20T06:03:24;98418.00;;;5.70;100.00
18988;BME280;5494;51.796;10.952;2023-12-20T06:05:53;98414.63;;;5.68;100.00
18988;BME280;5494;51.796;10.952;2023-12-20T06:08:36;98417.66;;;5.58;100.00
18988;BME280;5494;51.796;10.952;2023-12-20T06:11:05;98411.31;;;5.66;100.00
18988;BME280;5494;51.796;10.952;2023-12-20T06:13:33;98416.81;;;5.57;100.00
18988;BME280;5494;51.796;10.952;2023-12-20T06:16:06;98411.59;;;5.59;100.00
18988;BME280;5494;51.796;10.952;2023-12-20T06:18:34;98402.00;;;5.62;100.00
18988;BME280;5494;51.796;10.952;2023-12-20T06:21:05;98403.38;;;5.71;100.00
18988;BME280;5494;51.796;10.952;2023-12-20T06:23:34;98405.59;;;5.80;100.00
18988;BME280;5494;51.796;10.952;2023-12-20T06:26:03;98413.97;;;5.85;100.00
18988;BME280;5494;51.796;10.952;2023-12-20T06:28:31;98415.75;;;5.83;100.00
18988;BME280;5494;51.796;10.952;2023-12-20T06:30:59;98402.94;;;5.81;100.00
18988;BME280;5494;51.796;10.952;2023-12-20T06:33:28;98410.97;;;5.96;100.00
18988;BME280;5494;51.796;10.952;2023-12-20T06:35:57;98412.66;;;5.97;100.00
18988;BME280;5494;51.796;10.952;2023-12-20T06:38:27;98408.06;;;6.03;100.00
18988;BME280;5494;51.796;10.952;2023-12-20T06:40:55;98411.56;;;6.02;100.00
18988;BME280;5494;51.796;10.952;2023-12-20T06:43:24;98413.06;;;6.08;100.00
18988;BME280;5494;51.796;10.952;2023-12-20T06:46:12;98389.97;;;6.05;100.00
18988;BME280;5494;51.796;10.952;2023-12-20T06:48:40;98391.06;;;5.99;100.00
18988;BME280;5494;51.796;10.952;2023-12-20T06:51:15;98389.97;;;6.05;100.00
18988;BME280;5494;51.796;10.952;2023-12-20T06:53:44;98394.66;;;5.95;100.00
18988;BME280;5494;51.796;10.952;2023-12-20T06:56:12;98402.53;;;5.92;100.00
18988;BME280;5494;51.796;10.952;2023-12-20T06:58:44;98409.69;;;6.06;100.00
18988;BME280;5494;51.796;10.952;2023-12-20T07:01:13;98407.06;;;6.07;100.00
18988;BME280;5494;51.796;10.952;2023-12-20T07:03:42;98398.81;;;5.99;100.00
18988;BME280;5494;51.796;10.952;2023-12-20T07:06:10;98400.28;;;6.05;100.00
18988;BME280;5494;51.796;10.952;2023-12-20T07:08:39;98395.84;;;6.08;100.00
18988;BME280;5494;51.796;10.952;2023-12-20T07:11:09;98394.16;;;6.07;100.00
18988;BME280;5494;51.796;10.952;2023-12-20T07:13:37;98408.81;;;6.07;100.00
18988;BME280;5494;51.796;10.952;2023-12-20T07:16:06;98413.06;;;6.08;100.00
18988;BME280;5494;51.796;10.952;2023-12-20T07:18:34;98409.44;;;6.12;100.00
18988;BME280;5494;51.796;10.952;2023-12-20T07:21:03;98415.56;;;6.09;100.00
18988;BME280;5494;51.796;10.952;2023-12-20T07:23:31;98419.28;;;6.22;100.00
18988;BME280;5494;51.796;10.952;2023-12-20T07:25:59;98404.06;;;6.16;100.00
18988;BME280;5494;51.796;10.952;2023-12-20T07:28:29;98399.44;;;6.04;100.00
18988;BME280;5494;51.796;10.952;2023-12-20T07:30:58;98388.81;;;5.91;100.00
18988;BME280;5494;51.796;10.952;2023-12-20T07:33:26;98403.59;;;5.86;100.00
18988;BME280;5494;51.796;10.952;2023-12-20T07:35:54;98403.81;;;6.02;100.00
18988;BME280;5494;51.796;10.952;2023-12-20T07:38:23;98411.28;;;5.88;100.00
18988;BME280;5494;51.796;10.952;2023-12-20T07:40:51;98407.59;;;6.15;100.00
18988;BME280;5494;51.796;10.952;2023-12-20T07:43:20;98419.19;;;6.05;100.00
18988;BME280;5494;51.796;10.952;2023-12-20T07:45:49;98418.41;;;6.03;100.00
18988;BME280;5494;51.796;10.952;2023-12-20T07:48:17;98415.69;;;6.06;100.00
18988;BME280;5494;51.796;10.952;2023-12-20T07:50:45;98422.00;;;5.99;100.00
18988;BME280;5494;51.796;10.952;2023-12-20T07:53:13;98424.78;;;5.95;100.00
18988;BME280;5494;51.796;10.952;2023-12-20T07:55:41;98407.75;;;5.90;100.00
18988;BME280;5494;51.796;10.952;2023-12-20T07:58:13;98421.44;;;5.92;100.00
18988;BME280;5494;51.796;10.952;2023-12-20T08:00:41;98415.75;;;5.83;100.00
18988;BME280;5494;51.796;10.952;2023-12-20T08:03:10;98402.47;;;5.72;100.00
18988;BME280;5494;51.796;10.952;2023-12-20T08:05:38;98414.81;;;5.85;100.00
18988;BME280;5494;51.796;10.952;2023-12-20T08:08:07;98424.22;;;5.86;100.00
18988;BME280;5494;51.796;10.952;2023-12-20T08:10:35;98424.88;;;6.13;100.00
18988;BME280;5494;51.796;10.952;2023-12-20T08:13:03;98421.56;;;6.10;100.00
18988;BME280;5494;51.796;10.952;2023-12-20T08:15:31;98432.56;;;6.15;100.00
18988;BME280;5494;51.796;10.952;2023-12-20T08:18:00;98436.56;;;6.22;100.00
18988;BME280;5494;51.796;10.952;2023-12-20T08:20:29;98430.88;;;6.14;100.00
18988;BME280;5494;51.796;10.952;2023-12-20T08:23:06;98425.50;;;6.18;100.00
18988;BME280;5494;51.796;10.952;2023-12-20T08:25:34;98416.13;;;6.16;100.00
18988;BME280;5494;51.796;10.952;2023-12-20T08:28:03;98427.06;;;6.43;100.00
18988;BME280;5494;51.796;10.952;2023-12-20T08:30:31;98419.63;;;6.74;99.22
18988;BME280;5494;51.796;10.952;2023-12-20T08:33:00;98423.84;;;6.77;96.47
18988;BME280;5494;51.796;10.952;2023-12-20T08:35:30;98416.44;;;6.69;95.76
18988;BME280;5494;51.796;10.952;2023-12-20T08:37:58;98418.22;;;6.67;94.66
18988;BME280;5494;51.796;10.952;2023-12-20T08:40:27;98414.63;;;6.51;97.56
18988;BME280;5494;51.796;10.952;2023-12-20T08:42:55;98421.75;;;6.46;98.57
18988;BME280;5494;51.796;10.952;2023-12-20T08:45:26;98421.16;;;6.39;99.41
18988;BME280;5494;51.796;10.952;2023-12-20T08:47:54;98397.72;;;6.44;99.05
18988;BME280;5494;51.796;10.952;2023-12-20T08:50:25;98398.84;;;6.77;96.55
18988;BME280;5494;51.796;10.952;2023-12-20T08:52:55;98383.91;;;7.02;94.66
18988;BME280;5494;51.796;10.952;2023-12-20T08:55:23;98400.91;;;7.44;90.99
18988;BME280;5494;51.796;10.952;2023-12-20T08:57:51;98408.09;;;7.56;88.73
18988;BME280;5494;51.796;10.952;2023-12-20T09:00:19;98389.53;;;7.82;87.52
18988;BME280;5494;51.796;10.952;2023-12-20T09:02:51;98377.16;;;8.06;83.74
18988;BME280;5494;51.796;10.952;2023-12-20T09:05:19;98382.22;;;8.25;81.98
18988;BME280;5494;51.796;10.952;2023-12-20T09:07:47;98375.31;;;8.25;81.36
18988;BME280;5494;51.796;10.952;2023-12-20T09:10:16;98378.81;;;8.24;80.76
18988;BME280;5494;51.796;10.952;2023-12-20T09:12:50;98383.09;;;8.58;79.50
18988;BME280;5494;51.796;10.952;2023-12-20T09:15:22;98374.38;;;8.77;78.14
18988;BME280;5494;51.796;10.952;2023-12-20T09:17:50;98386.53;;;8.59;76.49
18988;BME280;5494;51.796;10.952;2023-12-20T09:20:18;98389.94;;;8.26;78.65
18988;BME280;5494;51.796;10.952;2023-12-20T09:22:47;98378.06;;;8.22;81.47
18988;BME280;5494;51.796;10.952;2023-12-20T09:25:16;98382.63;;;8.00;82.96
18988;BME280;5494;51.796;10.952;2023-12-20T09:27:44;98378.00;;;8.07;83.66
18988;BME280;5494;51.796;10.952;2023-12-20T09:30:13;98375.00;;;8.32;82.82
18988;BME280;5494;51.796;10.952;2023-12-20T09:32:53;98380.72;;;8.38;82.55
18988;BME280;5494;51.796;10.952;2023-12-20T09:35:22;98371.50;;;8.33;82.97
18988;BME280;5494;51.796;10.952;2023-12-20T09:37:50;98368.22;;;8.46;81.91
18988;BME280;5494;51.796;10.952;2023-12-20T09:40:20;98367.69;;;8.73;81.47
18988;BME280;5494;51.796;10.952;2023-12-20T09:42:55;98370.44;;;8.69;80.48
18988;BME280;5494;51.796;10.952;2023-12-20T09:45:25;98361.13;;;8.50;80.66
18988;BME280;5494;51.796;10.952;2023-12-20T09:47:54;98348.97;;;8.17;82.81
18988;BME280;5494;51.796;10.952;2023-12-20T09:50:22;98363.94;;;8.45;82.36
18988;BME280;5494;51.796;10.952;2023-12-20T09:52:53;98361.53;;;8.42;83.20
18988;BME280;5494;51.796;10.952;2023-12-20T09:55:25;98355.16;;;8.15;85.10
18988;BME280;5494;51.796;10.952;2023-12-20T09:57:55;98355.16;;;8.15;87.17
18988;BME280;5494;51.796;10.952;2023-12-20T10:00:23;98348.22;;;7.98;89.44
18988;BME280;5494;51.796;10.952;2023-12-20T10:02:57;98351.50;;;8.02;91.26
18988;BME280;5494;51.796;10.952;2023-12-20T10:05:28;98347.00;;;8.05;91.71
18988;BME280;5494;51.796;10.952;2023-12-20T10:07:58;98342.53;;;7.91;92.93
18988;BME280;5494;51.796;10.952;2023-12-20T10:10:28;98338.72;;;7.99;91.68
18988;BME280;5494;51.796;10.952;2023-12-20T10:13:12;98340.22;;;8.03;91.76
18988;BME280;5494;51.796;10.952;2023-12-20T10:15:41;98330.53;;;8.41;90.05
18988;BME280;5494;51.796;10.952;2023-12-20T10:18:09;98333.22;;;8.55;88.22
18988;BME280;5494;51.796;10.952;2023-12-20T10:20:40;98320.94;;;8.58;87.84
18988;BME280;5494;51.796;10.952;2023-12-20T10:23:08;98312.59;;;8.69;88.38
18988;BME280;5494;51.796;10.952;2023-12-20T10:25:38;98316.75;;;8.40;89.23
18988;BME280;5494;51.796;10.952;2023-12-20T10:28:11;98319.66;;;8.34;92.99
18988;BME280;5494;51.796;10.952;2023-12-20T10:30:41;98319.81;;;8.31;94.97
18988;BME280;5494;51.796;10.952;2023-12-20T10:33:10;98288.91;;;8.11;97.19
18988;BME280;5494;51.796;10.952;2023-12-20T10:35:40;98273.94;;;8.00;98.21
18988;BME280;5494;51.796;10.952;2023-12-20T10:38:14;98263.38;;;7.87;99.37
18988;BME280;5494;51.796;10.952;2023-12-20T10:40:46;98283.78;;;7.94;100.00
18988;BME280;5494;51.796;10.952;2023-12-20T10:43:15;98276.91;;;7.93;99.38
18988;BME280;5494;51.796;10.952;2023-12-20T10:45:44;98273.88;;;8.02;100.00
18988;BME280;5494;51.796;10.952;2023-12-20T10:48:12;98261.66;;;7.88;100.00
18988;BME280;5494;51.796;10.952;2023-12-20T10:50:41;98273.97;;;7.83;100.00
18988;BME280;5494;51.796;10.952;2023-12-20T10:53:10;98249.69;;;7.85;100.00
18988;BME280;5494;51.796;10.952;2023-12-20T10:55:39;98233.06;;;7.57;100.00
18988;BME280;5494;51.796;10.952;2023-12-20T10:58:09;98235.47;;;7.77;100.00
18988;BME280;5494;51.796;10.952;2023-12-20T11:00:40;98252.16;;;7.71;100.00
18988;BME280;5494;51.796;10.952;2023-12-20T11:03:11;98259.34;;;7.82;100.00
18988;BME280;5494;51.796;10.952;2023-12-20T11:05:50;98237.91;;;7.63;100.00
18988;BME280;5494;51.796;10.952;2023-12-20T11:08:31;98242.88;;;7.50;100.00
18988;BME280;5494;51.796;10.952;2023-12-20T11:11:07;98254.59;;;7.23;100.00
18988;BME280;5494;51.796;10.952;2023-12-20T11:13:52;98255.94;;;7.12;100.00
18988;BME280;5494;51.796;10.952;2023-12-20T11:16:21;98244.50;;;6.99;100.00
18988;BME280;5494;51.796;10.952;2023-12-20T11:18:52;98249.91;;;6.78;100.00
18988;BME280;5494;51.796;10.952;2023-12-20T11:21:20;98238.97;;;6.71;100.00
18988;BME280;5494;51.796;10.952;2023-12-20T11:23:49;98241.31;;;6.77;100.00
18988;BME280;5494;51.796;10.952;2023-12-20T11:26:22;98246.91;;;6.68;100.00
18988;BME280;5494;51.796;10.952;2023-12-20T11:29:31;98245.34;;;6.64;100.00
18988;BME280;5494;51.796;10.952;2023-12-20T11:32:02;98248.13;;;6.78;100.00
18988;BME280;5494;51.796;10.952;2023-12-20T11:34:33;98224.44;;;6.87;100.00
18988;BME280;5494;51.796;10.952;2023-12-20T11:37:03;98236.16;;;6.94;100.00
18988;BME280;5494;51.796;10.952;2023-12-20T11:39:31;98236.94;;;6.96;100.00
18988;BME280;5494;51.796;10.952;2023-12-20T11:42:05;98228.69;;;6.88;100.00
18988;BME280;5494;51.796;10.952;2023-12-20T11:44:36;98237.78;;;6.78;100.00
18988;BME280;5494;51.796;10.952;2023-12-20T11:47:05;98233.44;;;6.61;100.00
18988;BME280;5494;51.796;10.952;2023-12-20T11:49:32;98235.75;;;6.49;100.00
18988;BME280;5494;51.796;10.952;2023-12-20T11:52:01;98222.28;;;6.42;100.00
18988;BME280;5494;51.796;10.952;2023-12-20T11:54:30;98234.78;;;6.32;100.00
18988;BME280;5494;51.796;10.952;2023-12-20T11:56:58;98222.47;;;6.38;100.00
18988;BME280;5494;51.796;10.952;2023-12-20T11:59:26;98218.00;;;6.22;100.00
18988;BME280;5494;51.796;10.952;2023-12-20T12:01:55;98193.34;;;6.17;100.00
18988;BME280;5494;51.796;10.952;2023-12-20T12:04:28;98180.16;;;6.23;100.00
18988;BME280;5494;51.796;10.952;2023-12-20T12:06:56;98190.69;;;6.18;100.00
18988;BME280;5494;51.796;10.952;2023-12-20T12:09:24;98197.53;;;6.19;100.00
18988;BME280;5494;51.796;10.952;2023-12-20T12:11:52;98187.06;;;6.22;100.00
18988;BME280;5494;51.796;10.952;2023-12-20T12:14:20;98184.47;;;6.22;100.00
18988;BME280;5494;51.796;10.952;2023-12-20T12:16:48;98189.78;;;6.19;100.00
18988;BME280;5494;51.796;10.952;2023-12-20T12:19:22;98183.78;;;6.19;100.00
18988;BME280;5494;51.796;10.952;2023-12-20T12:21:51;98197.66;;;6.16;100.00
18988;BME280;5494;51.796;10.952;2023-12-20T12:24:20;98193.91;;;6.05;100.00
18988;BME280;5494;51.796;10.952;2023-12-20T12:26:52;98195.41;;;6.09;100.00
18988;BME280;5494;51.796;10.952;2023-12-20T12:29:20;98195.84;;;6.18;100.00
18988;BME280;5494;51.796;10.952;2023-12-20T12:31:48;98204.09;;;6.26;100.00
18988;BME280;5494;51.796;10.952;2023-12-20T12:34:17;98210.34;;;6.40;100.00
18988;BME280;5494;51.796;10.952;2023-12-20T12:36:48;98182.44;;;6.48;100.00
18988;BME280;5494;51.796;10.952;2023-12-20T12:39:18;98188.50;;;6.47;100.00
18988;BME280;5494;51.796;10.952;2023-12-20T12:41:46;98181.09;;;6.58;100.00
18988;BME280;5494;51.796;10.952;2023-12-20T12:44:14;98189.47;;;6.63;100.00
18988;BME280;5494;51.796;10.952;2023-12-20T12:46:44;98190.44;;;6.60;100.00
18988;BME280;5494;51.796;10.952;2023-12-20T12:49:13;98180.34;;;6.73;100.00
18988;BME280;5494;51.796;10.952;2023-12-20T12:51:42;98183.41;;;6.81;100.00
18988;BME280;5494;51.796;10.952;2023-12-20T12:54:13;98191.06;;;6.65;100.00
18988;BME280;5494;51.796;10.952;2023-12-20T12:56:43;98183.31;;;6.65;100.00
18988;BME280;5494;51.796;10.952;2023-12-20T12:59:11;98182.63;;;6.62;100.00
18988;BME280;5494;51.796;10.952;2023-12-20T13:01:39;98193.31;;;6.54;100.00
18988;BME280;5494;51.796;10.952;2023-12-20T13:04:08;98187.53;;;6.49;100.00
18988;BME280;5494;51.796;10.952;2023-12-20T13:06:38;98187.19;;;6.38;100.00
18988;BME280;5494;51.796;10.952;2023-12-20T13:09:08;98181.34;;;6.35;100.00
18988;BME280;5494;51.796;10.952;2023-12-20T13:11:37;98172.34;;;6.24;100.00
18988;BME280;5494;51.796;10.952;2023-12-20T13:14:05;98169.91;;;6.21;100.00